createdAt,value
2022-10-05T03:38:24.192Z,101491.53
2022-10-05T03:41:54.805Z,101491.53
2022-10-05T03:45:02.206Z,101495.16
2022-10-05T03:48:13.630Z,101499.50
2022-10-05T03:51:42.771Z,101496.91
2022-10-05T03:54:56.049Z,101509.09
2022-10-05T03:58:06.657Z,101515.19
2022-10-05T04:01:16.107Z,101513.41
2022-10-05T04:04:26.595Z,101516.13
2022-10-05T04:07:38.063Z,101513.34
2022-10-05T04:10:51.516Z,101509.88
2022-10-05T04:14:17.703Z,101495.09
2022-10-05T04:17:34.707Z,101503.78
2022-10-05T04:20:44.264Z,101507.13
2022-10-05T04:24:12.059Z,101513.94
2022-10-05T04:27:20.468Z,101513.62
2022-10-05T04:30:23.502Z,101514.47
2022-10-05T04:33:27.576Z,101515.91
2022-10-05T04:36:41.043Z,101514.97
2022-10-05T04:40:05.946Z,101523.59
2022-10-05T04:43:31.022Z,101527.22
2022-10-05T04:46:48.861Z,101523.75
2022-10-05T04:50:21.163Z,101525.47
2022-10-05T04:53:57.434Z,101523.94
2022-10-05T04:57:03.441Z,101526.69
2022-10-05T05:00:19.893Z,101521.44
2022-10-05T05:03:45.106Z,101517.09
2022-10-05T05:07:09.122Z,101514.72
2022-10-05T05:10:32.688Z,101516.41
2022-10-05T05:13:54.700Z,101518.97
2022-10-05T05:17:14.796Z,101512.06
2022-10-05T05:20:25.933Z,101505.03
2022-10-05T05:24:00.953Z,101517.19
2022-10-05T05:27:31.459Z,101527.50
2022-10-05T05:31:05.470Z,101519.34
2022-10-05T05:34:36.571Z,101521.81
2022-10-05T05:37:52.078Z,101526.88
2022-10-05T05:41:33.106Z,101532.94
2022-10-05T05:44:47.920Z,101532.88
2022-10-05T05:47:54.316Z,101541.34
2022-10-05T05:51:10.721Z,101552.69
2022-10-05T05:54:16.259Z,101548.22
2022-10-05T05:57:28.000Z,101555.66
2022-10-05T06:00:37.858Z,101557.28
2022-10-05T06:03:51.162Z,101575.53
2022-10-05T06:06:57.627Z,101576.25
2022-10-05T06:10:32.552Z,101574.38
2022-10-05T06:13:39.740Z,101582.72
2022-10-05T06:16:56.307Z,101593.81
2022-10-05T06:20:07.987Z,101601.41
2022-10-05T06:23:20.524Z,101612.34
2022-10-05T06:26:59.611Z,101616.41
2022-10-05T06:30:11.447Z,101621.53
2022-10-05T06:33:21.935Z,101618.56
2022-10-05T06:36:40.306Z,101615.53
2022-10-05T06:40:19.499Z,101621.16
2022-10-05T06:43:47.745Z,101631.09
2022-10-05T06:47:22.378Z,101634.38
2022-10-05T06:50:34.346Z,101633.13
2022-10-05T06:54:04.587Z,101628.31
2022-10-05T06:57:46.293Z,101632.06
2022-10-05T07:00:54.174Z,101628.88
2022-10-05T07:04:14.531Z,101634.63
2022-10-05T07:07:27.295Z,101644.75
2022-10-05T07:10:49.312Z,101650.69
2022-10-05T07:14:03.915Z,101655.56
2022-10-05T07:21:16.911Z,101661.38
2022-10-05T07:24:33.318Z,101646.66
2022-10-05T07:28:00.561Z,101639.09
2022-10-05T07:31:19.819Z,101639.28
2022-10-05T07:34:31.313Z,101658.50
2022-10-05T07:38:00.088Z,101660.84
2022-10-05T07:41:08.038Z,101667.03
2022-10-05T07:44:30.975Z,101659.84
2022-10-05T07:47:43.542Z,101656.28
2022-10-05T07:50:56.444Z,101648.75
2022-10-05T07:54:10.099Z,101649.25
2022-10-05T07:57:35.193Z,101651.13
2022-10-05T08:01:00.658Z,101648.50
2022-10-05T08:04:30.873Z,101645.66
2022-10-05T08:07:35.924Z,101669.00
2022-10-05T08:11:00.984Z,101668.09
2022-10-05T08:14:33.535Z,101664.37
2022-10-05T08:17:58.285Z,101657.47
2022-10-05T08:21:01.468Z,101649.03
2022-10-05T08:24:15.619Z,101640.25
2022-10-05T08:27:48.718Z,101635.97
2022-10-05T08:31:01.053Z,101632.31
2022-10-05T08:34:20.982Z,101623.81
2022-10-05T08:37:29.877Z,101621.94
2022-10-05T08:41:15.363Z,101631.00
2022-10-05T08:44:55.518Z,101636.00
2022-10-05T08:48:25.654Z,101625.44
2022-10-05T08:51:42.541Z,101619.66
2022-10-05T08:55:12.751Z,101621.50
2022-10-05T08:58:53.375Z,101626.44
2022-10-05T09:01:59.208Z,101623.06
2022-10-05T09:05:40.135Z,101613.37
2022-10-05T09:09:19.101Z,101630.81
2022-10-05T09:12:46.310Z,101641.44
2022-10-05T09:16:07.407Z,101640.28
2022-10-05T09:19:43.081Z,101640.53
2022-10-05T09:23:29.694Z,101654.19
2022-10-05T09:27:04.575Z,101659.06
2022-10-05T09:30:28.388Z,101656.44
2022-10-05T09:34:08.810Z,101655.34
2022-10-05T09:37:23.137Z,101652.25
2022-10-05T09:40:41.632Z,101646.56
2022-10-05T09:44:22.027Z,101646.75
2022-10-05T09:47:59.102Z,101651.94
2022-10-05T09:51:19.831Z,101647.28
2022-10-05T09:54:37.441Z,101636.69
2022-10-05T09:58:02.525Z,101640.16
2022-10-05T10:01:39.273Z,101637.50
2022-10-05T10:05:16.006Z,101635.91
2022-10-05T10:08:34.518Z,101631.19
2022-10-05T10:11:49.417Z,101632.75
2022-10-05T10:15:29.735Z,101631.22
2022-10-05T10:18:42.742Z,101636.59
2022-10-05T10:21:57.310Z,101635.25
2022-10-05T10:25:21.238Z,101637.63
2022-10-05T10:28:45.109Z,101631.53
2022-10-05T10:32:26.328Z,101632.25
2022-10-05T10:35:40.607Z,101637.69
2022-10-05T10:38:59.867Z,101639.34
2022-10-05T10:42:29.807Z,101632.06
2022-10-05T10:45:54.295Z,101633.56
2022-10-05T10:49:19.725Z,101630.13
2022-10-05T10:52:56.350Z,101634.44
2022-10-05T10:56:29.244Z,101637.34
2022-10-05T11:00:05.685Z,101637.97
2022-10-05T11:03:32.688Z,101633.66
2022-10-05T11:06:54.154Z,101638.16
2022-10-05T11:10:37.314Z,101639.56
2022-10-05T11:14:02.821Z,101635.50
2022-10-05T11:17:15.474Z,101636.13
2022-10-05T11:20:49.434Z,101631.47
2022-10-05T11:24:13.700Z,101621.81
2022-10-05T11:28:03.885Z,101621.13
2022-10-05T11:31:23.790Z,101625.41
2022-10-05T11:34:36.995Z,101613.84
2022-10-05T11:37:57.681Z,101608.06
2022-10-05T11:41:27.726Z,101604.09
2022-10-05T11:44:43.006Z,101600.13
2022-10-05T11:47:45.714Z,101592.81
2022-10-05T11:50:51.176Z,101591.38
2022-10-05T11:54:09.660Z,101590.34
2022-10-05T11:57:26.132Z,101583.25
2022-10-05T12:00:50.136Z,101579.44
2022-10-05T12:04:23.880Z,101577.44
2022-10-05T12:07:33.453Z,101583.19
2022-10-05T12:10:52.240Z,101564.50
2022-10-05T12:14:06.717Z,101561.94
2022-10-05T12:17:41.656Z,101563.81
2022-10-05T12:21:07.348Z,101560.91
2022-10-05T12:24:26.948Z,101560.91
2022-10-05T12:27:36.774Z,101565.28
2022-10-05T12:31:10.020Z,101559.81
2022-10-05T12:34:20.985Z,101554.03
2022-10-05T12:37:53.457Z,101554.97
2022-10-05T12:41:15.004Z,101547.84
2022-10-05T12:44:55.157Z,101535.53
2022-10-05T12:48:28.252Z,101535.59
2022-10-05T12:51:41.855Z,101527.84
2022-10-05T12:54:52.477Z,101536.53
2022-10-05T12:58:06.468Z,101530.38
2022-10-05T13:01:14.978Z,101526.16
2022-10-05T13:04:21.797Z,101520.25
2022-10-05T13:07:42.560Z,101517.38
2022-10-05T13:10:53.645Z,101519.19
2022-10-05T13:14:16.439Z,101527.56
2022-10-05T13:17:46.808Z,101534.44
2022-10-05T13:20:57.804Z,101525.56
2022-10-05T13:24:33.990Z,101530.59
2022-10-05T13:28:00.759Z,101530.41
2022-10-05T13:31:14.899Z,101525.94
2022-10-05T13:34:43.427Z,101516.62
2022-10-05T13:38:36.269Z,101515.31
2022-10-05T13:42:26.016Z,101504.97
2022-10-05T13:45:41.180Z,101507.50
2022-10-05T13:48:59.986Z,101506.62
2022-10-05T13:52:08.762Z,101513.25
2022-10-05T13:55:21.906Z,101506.78
2022-10-05T13:58:52.713Z,101500.63
2022-10-05T14:02:04.903Z,101507.25
2022-10-05T14:05:17.824Z,101510.84
2022-10-05T14:08:23.115Z,101503.91
2022-10-05T14:11:35.137Z,101512.41
2022-10-05T14:14:52.806Z,101513.19
2022-10-05T14:17:55.914Z,101509.38
2022-10-05T14:21:03.015Z,101514.28
2022-10-05T14:24:43.654Z,101509.19
2022-10-05T14:28:25.818Z,101513.19
2022-10-05T14:31:37.475Z,101511.00
2022-10-05T14:34:46.111Z,101509.59
2022-10-05T14:38:07.923Z,101507.56
2022-10-05T14:41:19.052Z,101511.94
2022-10-05T14:47:45.481Z,101519.31
2022-10-05T14:51:03.296Z,101516.75
2022-10-05T14:54:46.373Z,101506.03
2022-10-05T14:58:04.721Z,101508.81
2022-10-05T15:01:31.462Z,101514.19
2022-10-05T15:05:14.315Z,101504.16
2022-10-05T15:08:27.501Z,101500.69
2022-10-05T15:11:38.328Z,101495.09
2022-10-05T15:14:44.233Z,101493.38
2022-10-05T15:17:54.374Z,101484.56
2022-10-05T15:21:24.788Z,101475.09
2022-10-05T15:24:41.273Z,101480.00
2022-10-05T15:28:06.598Z,101482.16
2022-10-05T15:31:48.852Z,101495.56
2022-10-05T15:35:22.277Z,101502.50
2022-10-05T15:38:28.567Z,101484.06
2022-10-05T15:41:37.000Z,101469.47
2022-10-05T15:45:06.376Z,101471.41
2022-10-05T15:48:41.065Z,101476.31
